sensor_id;sensor_type;location;lat;lon;timestamp;P1;durP1;ratioP1;P2;durP2;ratioP2
66179;SDS011;52986;44.028;20.466;2023-09-19T00:02:12;14.48;;;8.35;;
66179;SDS011;52986;44.028;20.466;2023-09-19T00:04:37;14.75;;;8.15;;
66179;SDS011;52986;44.028;20.466;2023-09-19T00:07:05;17.33;;;8.40;;
66179;SDS011;52986;44.028;20.466;2023-09-19T00:09:30;14.88;;;8.05;;
66179;SDS011;52986;44.028;20.466;2023-09-19T00:14:27;14.82;;;8.75;;
66179;SDS011;52986;44.028;20.466;2023-09-19T00:16:53;14.82;;;8.57;;
66179;SDS011;52986;44.028;20.466;2023-09-19T00:19:19;15.18;;;8.13;;
66179;SDS011;52986;44.028;20.466;2023-09-19T00:21:45;14.82;;;8.50;;
66179;SDS011;52986;44.028;20.466;2023-09-19T00:24:12;15.20;;;8.15;;
66179;SDS011;52986;44.028;20.466;2023-09-19T00:26:39;15.20;;;8.48;;
66179;SDS011;52986;44.028;20.466;2023-09-19T00:29:05;14.85;;;7.97;;
66179;SDS011;52986;44.028;20.466;2023-09-19T00:31:33;16.45;;;8.38;;
66179;SDS011;52986;44.028;20.466;2023-09-19T00:33:59;14.50;;;8.27;;
66179;SDS011;52986;44.028;20.466;2023-09-19T00:36:31;16.50;;;8.60;;
66179;SDS011;52986;44.028;20.466;2023-09-19T00:38:58;13.85;;;7.95;;
66179;SDS011;52986;44.028;20.466;2023-09-19T00:41:24;16.48;;;8.85;;
66179;SDS011;52986;44.028;20.466;2023-09-19T00:43:50;18.90;;;8.77;;
66179;SDS011;52986;44.028;20.466;2023-09-19T00:46:18;17.90;;;8.38;;
66179;SDS011;52986;44.028;20.466;2023-09-19T00:48:44;16.08;;;8.60;;
66179;SDS011;52986;44.028;20.466;2023-09-19T00:51:11;15.13;;;7.95;;
66179;SDS011;52986;44.028;20.466;2023-09-19T00:53:38;13.63;;;8.00;;
66179;SDS011;52986;44.028;20.466;2023-09-19T00:56:04;14.07;;;8.20;;
66179;SDS011;52986;44.028;20.466;2023-09-19T00:58:33;14.65;;;8.70;;
66179;SDS011;52986;44.028;20.466;2023-09-19T01:01:00;16.98;;;8.70;;
66179;SDS011;52986;44.028;20.466;2023-09-19T01:03:27;15.82;;;8.32;;
66179;SDS011;52986;44.028;20.466;2023-09-19T01:05:52;15.20;;;8.55;;
66179;SDS011;52986;44.028;20.466;2023-09-19T01:08:18;14.48;;;8.43;;
66179;SDS011;52986;44.028;20.466;2023-09-19T01:10:44;15.35;;;8.55;;
66179;SDS011;52986;44.028;20.466;2023-09-19T01:13:26;15.27;;;8.38;;
66179;SDS011;52986;44.028;20.466;2023-09-19T01:21:27;14.55;;;7.78;;
66179;SDS011;52986;44.028;20.466;2023-09-19T01:32:05;12.05;;;7.22;;
66179;SDS011;52986;44.028;20.466;2023-09-19T01:34:44;13.35;;;7.05;;
66179;SDS011;52986;44.028;20.466;2023-09-19T01:37:13;14.32;;;7.30;;
66179;SDS011;52986;44.028;20.466;2023-09-19T01:39:43;13.90;;;7.55;;
66179;SDS011;52986;44.028;20.466;2023-09-19T01:42:14;13.13;;;6.93;;
66179;SDS011;52986;44.028;20.466;2023-09-19T01:47:38;14.35;;;7.22;;
66179;SDS011;52986;44.028;20.466;2023-09-19T01:53:25;14.13;;;7.80;;
66179;SDS011;52986;44.028;20.466;2023-09-19T01:55:53;16.15;;;8.13;;
66179;SDS011;52986;44.028;20.466;2023-09-19T01:58:20;17.58;;;8.32;;
66179;SDS011;52986;44.028;20.466;2023-09-19T02:01:10;15.93;;;8.52;;
66179;SDS011;52986;44.028;20.466;2023-09-19T02:03:40;15.75;;;8.60;;
66179;SDS011;52986;44.028;20.466;2023-09-19T02:06:06;15.32;;;8.23;;
66179;SDS011;52986;44.028;20.466;2023-09-19T02:08:36;16.63;;;8.27;;
66179;SDS011;52986;44.028;20.466;2023-09-19T02:11:02;15.75;;;8.02;;
66179;SDS011;52986;44.028;20.466;2023-09-19T02:13:27;16.70;;;8.05;;
66179;SDS011;52986;44.028;20.466;2023-09-19T02:15:53;14.25;;;7.97;;
66179;SDS011;52986;44.028;20.466;2023-09-19T02:18:19;15.82;;;7.78;;
66179;SDS011;52986;44.028;20.466;2023-09-19T02:20:44;14.60;;;7.70;;
66179;SDS011;52986;44.028;20.466;2023-09-19T02:23:11;14.63;;;7.82;;
66179;SDS011;52986;44.028;20.466;2023-09-19T02:25:37;14.65;;;8.20;;
66179;SDS011;52986;44.028;20.466;2023-09-19T02:28:04;15.02;;;7.93;;
66179;SDS011;52986;44.028;20.466;2023-09-19T02:30:30;14.85;;;8.00;;
66179;SDS011;52986;44.028;20.466;2023-09-19T02:32:56;15.60;;;7.90;;
66179;SDS011;52986;44.028;20.466;2023-09-19T02:35:21;15.20;;;8.32;;
66179;SDS011;52986;44.028;20.466;2023-09-19T02:37:47;17.20;;;8.25;;
66179;SDS011;52986;44.028;20.466;2023-09-19T02:40:13;14.80;;;8.38;;
66179;SDS011;52986;44.028;20.466;2023-09-19T02:42:52;15.95;;;8.18;;
66179;SDS011;52986;44.028;20.466;2023-09-19T02:45:19;15.95;;;8.10;;
66179;SDS011;52986;44.028;20.466;2023-09-19T02:47:45;13.65;;;7.68;;
66179;SDS011;52986;44.028;20.466;2023-09-19T02:50:12;16.23;;;8.90;;
66179;SDS011;52986;44.028;20.466;2023-09-19T02:52:38;14.63;;;8.30;;
66179;SDS011;52986;44.028;20.466;2023-09-19T02:55:06;16.38;;;8.38;;
66179;SDS011;52986;44.028;20.466;2023-09-19T02:57:34;14.95;;;8.32;;
66179;SDS011;52986;44.028;20.466;2023-09-19T03:00:00;15.73;;;7.82;;
66179;SDS011;52986;44.028;20.466;2023-09-19T03:02:26;15.10;;;7.85;;
66179;SDS011;52986;44.028;20.466;2023-09-19T03:04:52;15.68;;;8.38;;
66179;SDS011;52986;44.028;20.466;2023-09-19T03:07:18;14.55;;;7.78;;
66179;SDS011;52986;44.028;20.466;2023-09-19T03:09:44;14.15;;;8.30;;
66179;SDS011;52986;44.028;20.466;2023-09-19T03:12:10;15.70;;;8.35;;
66179;SDS011;52986;44.028;20.466;2023-09-19T03:14:35;15.77;;;8.25;;
66179;SDS011;52986;44.028;20.466;2023-09-19T03:17:01;15.88;;;8.65;;
66179;SDS011;52986;44.028;20.466;2023-09-19T03:19:30;16.15;;;8.57;;
66179;SDS011;52986;44.028;20.466;2023-09-19T03:21:55;14.75;;;8.35;;
66179;SDS011;52986;44.028;20.466;2023-09-19T03:24:22;13.95;;;7.90;;
66179;SDS011;52986;44.028;20.466;2023-09-19T03:26:48;15.00;;;7.93;;
66179;SDS011;52986;44.028;20.466;2023-09-19T03:29:14;12.93;;;7.47;;
66179;SDS011;52986;44.028;20.466;2023-09-19T03:31:40;14.10;;;7.78;;
66179;SDS011;52986;44.028;20.466;2023-09-19T03:34:06;14.52;;;7.40;;
66179;SDS011;52986;44.028;20.466;2023-09-19T03:36:31;13.80;;;7.15;;
66179;SDS011;52986;44.028;20.466;2023-09-19T03:39:01;14.05;;;7.50;;
66179;SDS011;52986;44.028;20.466;2023-09-19T03:41:26;14.38;;;7.78;;
66179;SDS011;52986;44.028;20.466;2023-09-19T03:43:52;14.88;;;7.15;;
66179;SDS011;52986;44.028;20.466;2023-09-19T03:46:18;13.70;;;7.53;;
66179;SDS011;52986;44.028;20.466;2023-09-19T03:48:43;16.08;;;7.60;;
66179;SDS011;52986;44.028;20.466;2023-09-19T03:51:10;12.73;;;7.50;;
66179;SDS011;52986;44.028;20.466;2023-09-19T03:53:35;20.15;;;8.02;;
66179;SDS011;52986;44.028;20.466;2023-09-19T03:56:01;14.10;;;7.45;;
66179;SDS011;52986;44.028;20.466;2023-09-19T03:58:26;14.77;;;7.93;;
66179;SDS011;52986;44.028;20.466;2023-09-19T04:00:55;15.07;;;7.80;;
66179;SDS011;52986;44.028;20.466;2023-09-19T04:03:21;15.35;;;7.72;;
66179;SDS011;52986;44.028;20.466;2023-09-19T04:05:46;13.50;;;7.60;;
66179;SDS011;52986;44.028;20.466;2023-09-19T04:08:14;13.98;;;7.53;;
66179;SDS011;52986;44.028;20.466;2023-09-19T04:10:43;14.18;;;7.45;;
66179;SDS011;52986;44.028;20.466;2023-09-19T04:13:09;15.38;;;7.65;;
66179;SDS011;52986;44.028;20.466;2023-09-19T04:15:35;15.10;;;7.30;;
66179;SDS011;52986;44.028;20.466;2023-09-19T04:18:01;13.90;;;7.70;;
66179;SDS011;52986;44.028;20.466;2023-09-19T04:20:28;15.13;;;7.57;;
66179;SDS011;52986;44.028;20.466;2023-09-19T04:22:53;13.10;;;7.53;;
66179;SDS011;52986;44.028;20.466;2023-09-19T04:25:19;14.35;;;7.55;;
66179;SDS011;52986;44.028;20.466;2023-09-19T04:27:45;15.10;;;7.38;;
66179;SDS011;52986;44.028;20.466;2023-09-19T04:30:11;14.55;;;7.45;;
66179;SDS011;52986;44.028;20.466;2023-09-19T04:32:40;14.27;;;7.20;;
66179;SDS011;52986;44.028;20.466;2023-09-19T04:35:06;14.73;;;7.38;;
66179;SDS011;52986;44.028;20.466;2023-09-19T04:37:34;13.80;;;7.50;;
66179;SDS011;52986;44.028;20.466;2023-09-19T04:40:05;14.85;;;7.50;;
66179;SDS011;52986;44.028;20.466;2023-09-19T04:42:31;17.88;;;8.00;;
66179;SDS011;52986;44.028;20.466;2023-09-19T04:44:57;16.60;;;8.13;;
66179;SDS011;52986;44.028;20.466;2023-09-19T04:47:24;14.95;;;7.72;;
66179;SDS011;52986;44.028;20.466;2023-09-19T04:49:50;17.23;;;8.05;;
66179;SDS011;52986;44.028;20.466;2023-09-19T04:52:15;15.85;;;7.85;;
66179;SDS011;52986;44.028;20.466;2023-09-19T04:54:41;25.85;;;8.68;;
66179;SDS011;52986;44.028;20.466;2023-09-19T04:57:06;17.55;;;7.90;;
66179;SDS011;52986;44.028;20.466;2023-09-19T04:59:32;14.18;;;7.35;;
66179;SDS011;52986;44.028;20.466;2023-09-19T05:01:58;14.27;;;8.23;;
66179;SDS011;52986;44.028;20.466;2023-09-19T05:04:24;15.10;;;7.93;;
66179;SDS011;52986;44.028;20.466;2023-09-19T05:06:49;16.40;;;7.60;;
66179;SDS011;52986;44.028;20.466;2023-09-19T05:09:15;16.98;;;7.88;;
66179;SDS011;52986;44.028;20.466;2023-09-19T05:11:45;15.73;;;7.88;;
66179;SDS011;52986;44.028;20.466;2023-09-19T05:14:11;16.00;;;8.65;;
66179;SDS011;52986;44.028;20.466;2023-09-19T05:16:37;17.63;;;8.15;;
66179;SDS011;52986;44.028;20.466;2023-09-19T05:19:05;15.02;;;8.02;;
66179;SDS011;52986;44.028;20.466;2023-09-19T05:21:31;14.70;;;7.32;;
66179;SDS011;52986;44.028;20.466;2023-09-19T05:23:56;18.02;;;8.10;;
66179;SDS011;52986;44.028;20.466;2023-09-19T05:26:22;17.05;;;7.80;;
66179;SDS011;52986;44.028;20.466;2023-09-19T05:28:47;14.18;;;7.90;;
66179;SDS011;52986;44.028;20.466;2023-09-19T05:31:13;17.08;;;8.18;;
66179;SDS011;52986;44.028;20.466;2023-09-19T05:33:39;19.17;;;8.40;;
66179;SDS011;52986;44.028;20.466;2023-09-19T05:36:04;13.70;;;7.72;;
66179;SDS011;52986;44.028;20.466;2023-09-19T05:38:30;14.13;;;7.90;;
66179;SDS011;52986;44.028;20.466;2023-09-19T05:40:56;18.25;;;9.45;;
66179;SDS011;52986;44.028;20.466;2023-09-19T05:43:21;17.42;;;8.52;;
66179;SDS011;52986;44.028;20.466;2023-09-19T05:45:47;15.07;;;7.82;;
66179;SDS011;52986;44.028;20.466;2023-09-19T05:48:13;15.70;;;7.32;;
66179;SDS011;52986;44.028;20.466;2023-09-19T05:50:40;16.42;;;8.77;;
66179;SDS011;52986;44.028;20.466;2023-09-19T05:53:06;15.02;;;8.02;;
66179;SDS011;52986;44.028;20.466;2023-09-19T05:55:31;16.85;;;8.13;;
66179;SDS011;52986;44.028;20.466;2023-09-19T05:57:57;15.88;;;8.57;;
66179;SDS011;52986;44.028;20.466;2023-09-19T06:00:23;16.00;;;8.50;;
66179;SDS011;52986;44.028;20.466;2023-09-19T06:02:51;15.95;;;8.30;;
66179;SDS011;52986;44.028;20.466;2023-09-19T06:05:17;14.80;;;8.68;;
66179;SDS011;52986;44.028;20.466;2023-09-19T06:07:43;19.10;;;8.57;;
66179;SDS011;52986;44.028;20.466;2023-09-19T06:10:09;17.23;;;8.80;;
66179;SDS011;52986;44.028;20.466;2023-09-19T06:12:38;18.90;;;9.07;;
66179;SDS011;52986;44.028;20.466;2023-09-19T06:15:04;15.48;;;8.60;;
66179;SDS011;52986;44.028;20.466;2023-09-19T06:17:31;16.30;;;8.45;;
66179;SDS011;52986;44.028;20.466;2023-09-19T06:19:56;15.57;;;8.93;;
66179;SDS011;52986;44.028;20.466;2023-09-19T06:22:22;17.65;;;8.90;;
66179;SDS011;52986;44.028;20.466;2023-09-19T06:24:47;15.30;;;7.97;;
66179;SDS011;52986;44.028;20.466;2023-09-19T06:27:13;15.70;;;7.20;;
66179;SDS011;52986;44.028;20.466;2023-09-19T06:29:38;14.40;;;7.47;;
66179;SDS011;52986;44.028;20.466;2023-09-19T06:32:08;13.38;;;6.80;;
66179;SDS011;52986;44.028;20.466;2023-09-19T06:34:34;14.38;;;7.00;;
66179;SDS011;52986;44.028;20.466;2023-09-19T06:36:59;15.00;;;6.88;;
66179;SDS011;52986;44.028;20.466;2023-09-19T06:39:25;13.00;;;6.53;;
66179;SDS011;52986;44.028;20.466;2023-09-19T06:41:51;14.48;;;7.65;;
66179;SDS011;52986;44.028;20.466;2023-09-19T06:44:18;14.77;;;7.28;;
66179;SDS011;52986;44.028;20.466;2023-09-19T06:46:46;14.13;;;7.22;;
66179;SDS011;52986;44.028;20.466;2023-09-19T06:49:15;11.60;;;6.20;;
66179;SDS011;52986;44.028;20.466;2023-09-19T06:51:40;12.85;;;6.72;;
66179;SDS011;52986;44.028;20.466;2023-09-19T06:54:07;12.57;;;6.03;;
66179;SDS011;52986;44.028;20.466;2023-09-19T06:56:32;12.38;;;6.20;;
66179;SDS011;52986;44.028;20.466;2023-09-19T06:58:58;12.18;;;6.25;;
66179;SDS011;52986;44.028;20.466;2023-09-19T07:01:23;13.30;;;6.20;;
66179;SDS011;52986;44.028;20.466;2023-09-19T07:03:50;11.38;;;6.25;;
66179;SDS011;52986;44.028;20.466;2023-09-19T07:06:15;12.77;;;6.63;;
66179;SDS011;52986;44.028;20.466;2023-09-19T07:08:41;12.82;;;6.60;;
66179;SDS011;52986;44.028;20.466;2023-09-19T07:11:06;14.32;;;6.80;;
66179;SDS011;52986;44.028;20.466;2023-09-19T07:13:32;12.90;;;6.53;;
66179;SDS011;52986;44.028;20.466;2023-09-19T07:15:58;14.23;;;6.53;;
66179;SDS011;52986;44.028;20.466;2023-09-19T07:18:24;12.80;;;6.95;;
66179;SDS011;52986;44.028;20.466;2023-09-19T07:20:50;15.07;;;6.65;;
66179;SDS011;52986;44.028;20.466;2023-09-19T07:23:18;12.23;;;6.65;;
66179;SDS011;52986;44.028;20.466;2023-09-19T07:25:47;12.15;;;6.70;;
66179;SDS011;52986;44.028;20.466;2023-09-19T07:28:13;14.45;;;6.30;;
66179;SDS011;52986;44.028;20.466;2023-09-19T07:30:39;14.13;;;6.60;;
66179;SDS011;52986;44.028;20.466;2023-09-19T07:33:06;13.13;;;6.55;;
66179;SDS011;52986;44.028;20.466;2023-09-19T07:35:32;10.93;;;5.93;;
66179;SDS011;52986;44.028;20.466;2023-09-19T07:37:58;11.18;;;6.20;;
66179;SDS011;52986;44.028;20.466;2023-09-19T07:40:26;13.05;;;6.55;;
66179;SDS011;52986;44.028;20.466;2023-09-19T07:42:54;11.95;;;6.28;;
66179;SDS011;52986;44.028;20.466;2023-09-19T07:45:20;12.05;;;6.57;;
66179;SDS011;52986;44.028;20.466;2023-09-19T07:47:46;11.45;;;6.15;;
66179;SDS011;52986;44.028;20.466;2023-09-19T07:50:12;13.73;;;6.50;;
66179;SDS011;52986;44.028;20.466;2023-09-19T07:52:38;12.82;;;6.15;;
66179;SDS011;52986;44.028;20.466;2023-09-19T07:55:07;12.80;;;6.38;;
66179;SDS011;52986;44.028;20.466;2023-09-19T07:57:37;10.38;;;6.38;;
66179;SDS011;52986;44.028;20.466;2023-09-19T08:00:03;12.65;;;6.50;;
66179;SDS011;52986;44.028;20.466;2023-09-19T08:02:35;10.90;;;6.40;;
66179;SDS011;52986;44.028;20.466;2023-09-19T08:05:03;14.98;;;6.40;;
66179;SDS011;52986;44.028;20.466;2023-09-19T08:07:31;11.38;;;6.30;;
66179;SDS011;52986;44.028;20.466;2023-09-19T08:09:57;11.90;;;5.97;;
66179;SDS011;52986;44.028;20.466;2023-09-19T08:12:23;12.63;;;6.32;;
66179;SDS011;52986;44.028;20.466;2023-09-19T08:14:49;11.15;;;6.32;;
66179;SDS011;52986;44.028;20.466;2023-09-19T08:17:15;12.15;;;6.60;;
66179;SDS011;52986;44.028;20.466;2023-09-19T08:19:41;14.57;;;6.50;;
66179;SDS011;52986;44.028;20.466;2023-09-19T08:22:07;11.43;;;6.20;;
66179;SDS011;52986;44.028;20.466;2023-09-19T08:24:35;11.85;;;5.90;;
66179;SDS011;52986;44.028;20.466;2023-09-19T08:27:01;13.30;;;6.60;;
66179;SDS011;52986;44.028;20.466;2023-09-19T08:29:29;12.82;;;6.55;;
66179;SDS011;52986;44.028;20.466;2023-09-19T08:31:55;10.98;;;6.40;;
66179;SDS011;52986;44.028;20.466;2023-09-19T08:34:22;11.50;;;6.35;;
66179;SDS011;52986;44.028;20.466;2023-09-19T08:36:48;12.10;;;6.65;;
66179;SDS011;52986;44.028;20.466;2023-09-19T08:39:16;11.35;;;6.35;;
66179;SDS011;52986;44.028;20.466;2023-09-19T08:41:42;12.45;;;5.97;;
66179;SDS011;52986;44.028;20.466;2023-09-19T08:44:07;11.45;;;6.32;;
66179;SDS011;52986;44.028;20.466;2023-09-19T08:46:33;11.85;;;6.10;;
66179;SDS011;52986;44.028;20.466;2023-09-19T08:49:04;12.48;;;7.35;;
66179;SDS011;52986;44.028;20.466;2023-09-19T08:54:12;14.02;;;7.43;;
66179;SDS011;52986;44.028;20.466;2023-09-19T08:56:47;13.15;;;7.15;;
66179;SDS011;52986;44.028;20.466;2023-09-19T08:59:15;14.52;;;7.60;;
66179;SDS011;52986;44.028;20.466;2023-09-19T09:01:42;13.30;;;7.15;;
66179;SDS011;52986;44.028;20.466;2023-09-19T09:04:08;13.02;;;7.63;;
66179;SDS011;52986;44.028;20.466;2023-09-19T09:06:38;15.00;;;8.00;;
66179;SDS011;52986;44.028;20.466;2023-09-19T09:09:05;17.10;;;8.07;;
66179;SDS011;52986;44.028;20.466;2023-09-19T09:11:32;15.75;;;8.32;;
66179;SDS011;52986;44.028;20.466;2023-09-19T09:13:58;18.10;;;9.52;;
66179;SDS011;52986;44.028;20.466;2023-09-19T09:16:23;14.07;;;7.03;;
66179;SDS011;52986;44.028;20.466;2023-09-19T09:18:51;15.27;;;7.45;;
66179;SDS011;52986;44.028;20.466;2023-09-19T09:21:19;13.60;;;7.50;;
66179;SDS011;52986;44.028;20.466;2023-09-19T09:23:46;15.27;;;7.80;;
66179;SDS011;52986;44.028;20.466;2023-09-19T09:26:12;13.65;;;7.40;;
66179;SDS011;52986;44.028;20.466;2023-09-19T09:28:44;15.98;;;7.85;;
66179;SDS011;52986;44.028;20.466;2023-09-19T09:31:22;13.38;;;7.70;;
66179;SDS011;52986;44.028;20.466;2023-09-19T09:33:53;16.95;;;7.82;;
66179;SDS011;52986;44.028;20.466;2023-09-19T09:36:33;13.50;;;6.53;;
66179;SDS011;52986;44.028;20.466;2023-09-19T09:39:02;14.93;;;7.22;;
66179;SDS011;52986;44.028;20.466;2023-09-19T09:41:41;12.10;;;7.10;;
66179;SDS011;52986;44.028;20.466;2023-09-19T09:44:16;13.38;;;6.75;;
66179;SDS011;52986;44.028;20.466;2023-09-19T09:46:44;14.07;;;6.75;;
66179;SDS011;52986;44.028;20.466;2023-09-19T09:49:27;12.82;;;6.95;;
66179;SDS011;52986;44.028;20.466;2023-09-19T09:52:05;12.80;;;6.63;;
66179;SDS011;52986;44.028;20.466;2023-09-19T09:54:33;12.30;;;6.65;;
66179;SDS011;52986;44.028;20.466;2023-09-19T09:57:02;12.70;;;6.40;;
66179;SDS011;52986;44.028;20.466;2023-09-19T10:02:27;13.27;;;7.38;;
66179;SDS011;52986;44.028;20.466;2023-09-19T10:07:40;15.65;;;6.93;;
66179;SDS011;52986;44.028;20.466;2023-09-19T10:10:14;12.27;;;6.80;;
66179;SDS011;52986;44.028;20.466;2023-09-19T10:12:46;12.70;;;7.13;;
66179;SDS011;52986;44.028;20.466;2023-09-19T10:15:16;18.10;;;7.80;;
66179;SDS011;52986;44.028;20.466;2023-09-19T10:17:45;13.13;;;6.95;;
66179;SDS011;52986;44.028;20.466;2023-09-19T10:20:12;13.32;;;6.70;;
66179;SDS011;52986;44.028;20.466;2023-09-19T10:23:10;14.23;;;6.80;;
66179;SDS011;52986;44.028;20.466;2023-09-19T10:25:41;14.85;;;6.90;;
66179;SDS011;52986;44.028;20.466;2023-09-19T10:30:38;14.38;;;6.32;;
66179;SDS011;52986;44.028;20.466;2023-09-19T10:35:34;12.07;;;6.35;;
66179;SDS011;52986;44.028;20.466;2023-09-19T10:38:05;15.68;;;6.85;;
66179;SDS011;52986;44.028;20.466;2023-09-19T10:40:32;13.50;;;7.03;;
66179;SDS011;52986;44.028;20.466;2023-09-19T10:43:04;14.50;;;6.43;;
66179;SDS011;52986;44.028;20.466;2023-09-19T10:45:34;15.85;;;6.38;;
66179;SDS011;52986;44.028;20.466;2023-09-19T10:48:01;16.80;;;7.03;;
66179;SDS011;52986;44.028;20.466;2023-09-19T10:50:31;11.07;;;6.22;;
66179;SDS011;52986;44.028;20.466;2023-09-19T10:53:20;12.98;;;6.20;;
66179;SDS011;52986;44.028;20.466;2023-09-19T10:55:49;13.90;;;6.85;;
66179;SDS011;52986;44.028;20.466;2023-09-19T10:58:25;13.75;;;6.70;;
66179;SDS011;52986;44.028;20.466;2023-09-19T11:00:54;14.13;;;7.25;;
66179;SDS011;52986;44.028;20.466;2023-09-19T11:03:37;14.32;;;7.03;;
66179;SDS011;52986;44.028;20.466;2023-09-19T11:06:12;14.48;;;6.60;;
66179;SDS011;52986;44.028;20.466;2023-09-19T11:11:44;12.60;;;6.80;;
66179;SDS011;52986;44.028;20.466;2023-09-19T11:30:43;15.30;;;7.00;;
66179;SDS011;52986;44.028;20.466;2023-09-19T11:46:28;15.45;;;7.35;;
66179;SDS011;52986;44.028;20.466;2023-09-19T11:48:55;18.08;;;7.30;;
66179;SDS011;52986;44.028;20.466;2023-09-19T11:51:39;14.43;;;7.32;;
66179;SDS011;52986;44.028;20.466;2023-09-19T11:54:10;12.30;;;6.38;;
66179;SDS011;52986;44.028;20.466;2023-09-19T11:56:50;15.63;;;7.45;;
66179;SDS011;52986;44.028;20.466;2023-09-19T11:59:26;18.13;;;8.23;;
66179;SDS011;52986;44.028;20.466;2023-09-19T12:04:33;18.63;;;8.40;;
66179;SDS011;52986;44.028;20.466;2023-09-19T12:07:23;14.40;;;7.85;;
66179;SDS011;52986;44.028;20.466;2023-09-19T12:09:49;19.27;;;9.07;;
66179;SDS011;52986;44.028;20.466;2023-09-19T12:12:27;17.63;;;8.25;;
66179;SDS011;52986;44.028;20.466;2023-09-19T12:14:53;16.50;;;8.50;;
66179;SDS011;52986;44.028;20.466;2023-09-19T12:17:19;18.33;;;7.57;;
66179;SDS011;52986;44.028;20.466;2023-09-19T12:19:51;17.27;;;7.38;;
66179;SDS011;52986;44.028;20.466;2023-09-19T12:22:17;19.30;;;8.13;;
66179;SDS011;52986;44.028;20.466;2023-09-19T12:24:45;16.25;;;7.38;;
66179;SDS011;52986;44.028;20.466;2023-09-19T12:27:11;19.05;;;8.00;;
66179;SDS011;52986;44.028;20.466;2023-09-19T12:29:44;15.80;;;7.60;;
66179;SDS011;52986;44.028;20.466;2023-09-19T12:32:11;21.27;;;7.88;;
66179;SDS011;52986;44.028;20.466;2023-09-19T12:34:38;16.95;;;7.63;;
66179;SDS011;52986;44.028;20.466;2023-09-19T12:37:11;20.13;;;8.20;;
66179;SDS011;52986;44.028;20.466;2023-09-19T12:39:38;16.98;;;8.95;;
66179;SDS011;52986;44.028;20.466;2023-09-19T12:42:03;19.98;;;9.00;;
66179;SDS011;52986;44.028;20.466;2023-09-19T12:44:33;18.50;;;8.20;;
66179;SDS011;52986;44.028;20.466;2023-09-19T12:47:07;20.00;;;9.05;;
66179;SDS011;52986;44.028;20.466;2023-09-19T12:49:34;18.70;;;8.25;;
66179;SDS011;52986;44.028;20.466;2023-09-19T12:51:59;18.67;;;7.97;;
66179;SDS011;52986;44.028;20.466;2023-09-19T12:54:25;17.00;;;7.93;;
66179;SDS011;52986;44.028;20.466;2023-09-19T12:57:03;17.42;;;6.65;;
66179;SDS011;52986;44.028;20.466;2023-09-19T12:59:30;20.42;;;7.93;;
66179;SDS011;52986;44.028;20.466;2023-09-19T13:02:04;14.57;;;7.10;;
66179;SDS011;52986;44.028;20.466;2023-09-19T13:04:38;18.10;;;7.38;;
66179;SDS011;52986;44.028;20.466;2023-09-19T13:07:06;17.40;;;7.63;;
66179;SDS011;52986;44.028;20.466;2023-09-19T13:09:34;19.20;;;7.72;;
66179;SDS011;52986;44.028;20.466;2023-09-19T13:12:00;16.58;;;6.72;;
66179;SDS011;52986;44.028;20.466;2023-09-19T13:14:27;18.20;;;7.60;;
66179;SDS011;52986;44.028;20.466;2023-09-19T13:17:00;18.55;;;8.65;;
66179;SDS011;52986;44.028;20.466;2023-09-19T13:19:43;19.88;;;7.40;;
66179;SDS011;52986;44.028;20.466;2023-09-19T13:25:10;18.15;;;7.10;;
66179;SDS011;52986;44.028;20.466;2023-09-19T13:27:46;22.85;;;8.05;;
66179;SDS011;52986;44.028;20.466;2023-09-19T13:30:16;20.17;;;7.47;;
66179;SDS011;52986;44.028;20.466;2023-09-19T13:32:42;23.20;;;8.68;;
66179;SDS011;52986;44.028;20.466;2023-09-19T13:35:09;25.45;;;8.27;;
66179;SDS011;52986;44.028;20.466;2023-09-19T13:37:34;24.98;;;8.60;;
66179;SDS011;52986;44.028;20.466;2023-09-19T13:40:07;26.05;;;8.20;;
66179;SDS011;52986;44.028;20.466;2023-09-19T13:42:33;26.90;;;8.82;;
66179;SDS011;52986;44.028;20.466;2023-09-19T13:45:00;28.92;;;9.48;;
66179;SDS011;52986;44.028;20.466;2023-09-19T13:47:25;25.92;;;8.35;;
66179;SDS011;52986;44.028;20.466;2023-09-19T13:49:52;18.77;;;7.70;;
66179;SDS011;52986;44.028;20.466;2023-09-19T13:52:20;23.17;;;8.50;;
66179;SDS011;52986;44.028;20.466;2023-09-19T13:54:48;22.63;;;8.32;;
66179;SDS011;52986;44.028;20.466;2023-09-19T13:57:17;24.70;;;9.02;;
66179;SDS011;52986;44.028;20.466;2023-09-19T13:59:43;22.02;;;7.40;;
66179;SDS011;52986;44.028;20.466;2023-09-19T14:02:09;19.92;;;7.57;;
66179;SDS011;52986;44.028;20.466;2023-09-19T14:04:34;25.92;;;7.70;;
66179;SDS011;52986;44.028;20.466;2023-09-19T14:07:00;25.75;;;8.18;;
66179;SDS011;52986;44.028;20.466;2023-09-19T14:09:26;23.17;;;8.20;;
66179;SDS011;52986;44.028;20.466;2023-09-19T14:11:51;21.30;;;8.27;;
66179;SDS011;52986;44.028;20.466;2023-09-19T14:14:18;21.55;;;7.80;;
66179;SDS011;52986;44.028;20.466;2023-09-19T14:16:49;17.13;;;7.38;;
66179;SDS011;52986;44.028;20.466;2023-09-19T14:19:16;20.75;;;7.47;;
66179;SDS011;52986;44.028;20.466;2023-09-19T14:21:41;20.02;;;6.90;;
66179;SDS011;52986;44.028;20.466;2023-09-19T14:24:07;14.60;;;4.53;;
66179;SDS011;52986;44.028;20.466;2023-09-19T14:26:37;9.63;;;3.38;;
66179;SDS011;52986;44.028;20.466;2023-09-19T14:29:03;10.20;;;3.55;;
66179;SDS011;52986;44.028;20.466;2023-09-19T14:31:29;9.52;;;2.88;;
66179;SDS011;52986;44.028;20.466;2023-09-19T14:33:55;9.52;;;2.95;;
66179;SDS011;52986;44.028;20.466;2023-09-19T14:36:21;7.22;;;2.60;;
66179;SDS011;52986;44.028;20.466;2023-09-19T14:38:51;8.95;;;3.10;;
66179;SDS011;52986;44.028;20.466;2023-09-19T14:41:20;7.63;;;2.55;;
66179;SDS011;52986;44.028;20.466;2023-09-19T14:43:46;10.07;;;3.00;;
66179;SDS011;52986;44.028;20.466;2023-09-19T14:46:11;9.05;;;3.00;;
66179;SDS011;52986;44.028;20.466;2023-09-19T14:48:37;9.27;;;2.85;;
66179;SDS011;52986;44.028;20.466;2023-09-19T14:51:03;8.00;;;2.85;;
66179;SDS011;52986;44.028;20.466;2023-09-19T14:53:29;9.13;;;2.92;;
66179;SDS011;52986;44.028;20.466;2023-09-19T14:55:55;9.68;;;2.70;;
66179;SDS011;52986;44.028;20.466;2023-09-19T14:58:21;10.48;;;2.90;;
66179;SDS011;52986;44.028;20.466;2023-09-19T15:00:46;9.25;;;2.90;;
66179;SDS011;52986;44.028;20.466;2023-09-19T15:03:12;9.63;;;3.40;;
66179;SDS011;52986;44.028;20.466;2023-09-19T15:05:38;9.30;;;3.17;;
66179;SDS011;52986;44.028;20.466;2023-09-19T15:08:04;10.45;;;3.10;;
66179;SDS011;52986;44.028;20.466;2023-09-19T15:10:30;10.75;;;3.70;;
66179;SDS011;52986;44.028;20.466;2023-09-19T15:12:56;13.77;;;3.78;;
66179;SDS011;52986;44.028;20.466;2023-09-19T15:15:22;10.80;;;3.50;;
66179;SDS011;52986;44.028;20.466;2023-09-19T15:17:48;9.55;;;3.22;;
66179;SDS011;52986;44.028;20.466;2023-09-19T15:20:13;9.15;;;3.10;;
66179;SDS011;52986;44.028;20.466;2023-09-19T15:22:39;8.82;;;3.28;;
66179;SDS011;52986;44.028;20.466;2023-09-19T15:25:05;9.45;;;3.90;;
66179;SDS011;52986;44.028;20.466;2023-09-19T15:27:33;11.57;;;3.78;;
66179;SDS011;52986;44.028;20.466;2023-09-19T15:30:02;11.32;;;3.78;;
66179;SDS011;52986;44.028;20.466;2023-09-19T15:32:27;9.93;;;3.40;;
66179;SDS011;52986;44.028;20.466;2023-09-19T15:34:53;11.75;;;3.60;;
66179;SDS011;52986;44.028;20.466;2023-09-19T15:37:18;11.05;;;4.20;;
66179;SDS011;52986;44.028;20.466;2023-09-19T15:39:45;12.38;;;4.68;;
66179;SDS011;52986;44.028;20.466;2023-09-19T15:42:11;12.52;;;4.50;;